createdAt,value
2023-01-05T00:02:24.539Z,99103.38
2023-01-05T00:04:53.176Z,99106.78
2023-01-05T00:07:24.897Z,99097.84
2023-01-05T00:09:57.465Z,99112.53
2023-01-05T00:12:51.627Z,99084.09
2023-01-05T00:15:38.968Z,99081.00
2023-01-05T00:18:33.528Z,99073.78
2023-01-05T00:21:24.842Z,99083.25
2023-01-05T00:26:58.846Z,99088.22
2023-01-05T00:29:33.201Z,99088.66
2023-01-05T00:32:03.995Z,99101.56
2023-01-05T00:34:33.922Z,99109.31
2023-01-05T00:37:04.399Z,99117.72
2023-01-05T00:39:32.873Z,99110.84
2023-01-05T00:42:01.043Z,99107.75
2023-01-05T00:44:31.438Z,99096.47
2023-01-05T00:47:08.975Z,99106.25
2023-01-05T00:49:37.487Z,99084.72
2023-01-05T00:52:07.237Z,99081.09
2023-01-05T00:54:35.886Z,99080.19
2023-01-05T00:57:06.228Z,99083.56
2023-01-05T00:59:35.506Z,99092.75
2023-01-05T01:02:06.188Z,99108.59
2023-01-05T01:04:35.865Z,99095.66
2023-01-05T01:07:05.705Z,99101.91
2023-01-05T01:09:35.596Z,99107.56
2023-01-05T01:12:08.171Z,99099.78
2023-01-05T01:14:41.683Z,99098.50
2023-01-05T01:17:14.279Z,99088.31
2023-01-05T01:19:44.001Z,99101.25
2023-01-05T01:22:12.229Z,99098.59
2023-01-05T01:24:43.822Z,99095.56
2023-01-05T01:27:16.311Z,99086.31
2023-01-05T01:29:46.164Z,99091.78
2023-01-05T01:32:24.035Z,99092.97
2023-01-05T01:34:55.615Z,99104.88
2023-01-05T01:37:25.017Z,99080.59
2023-01-05T01:39:54.748Z,99075.03
2023-01-05T01:42:29.541Z,99086.59
2023-01-05T01:45:05.170Z,99076.22
2023-01-05T01:47:41.444Z,99084.06
2023-01-05T01:50:16.465Z,99089.59
2023-01-05T01:52:51.119Z,99093.38
2023-01-05T01:55:21.034Z,99092.84
2023-01-05T01:57:53.369Z,99102.28
2023-01-05T02:00:23.252Z,99098.03
2023-01-05T02:03:00.437Z,99087.66
2023-01-05T02:05:34.985Z,99090.84
2023-01-05T02:08:03.463Z,99086.69
2023-01-05T02:10:48.869Z,99095.06
2023-01-05T02:13:36.302Z,99091.72
2023-01-05T02:16:22.605Z,99091.09
2023-01-05T02:19:33.400Z,99100.75
2023-01-05T02:22:25.671Z,99078.69
2023-01-05T02:25:26.518Z,99088.44
2023-01-05T02:28:09.891Z,99078.22
2023-01-05T02:31:11.017Z,99078.75
2023-01-05T02:34:01.236Z,99082.66
2023-01-05T02:36:32.687Z,99084.00
2023-01-05T02:39:09.915Z,99079.06
2023-01-05T02:41:44.525Z,99080.38
2023-01-05T02:44:23.901Z,99095.78
2023-01-05T02:47:04.161Z,99082.50
2023-01-05T02:49:38.446Z,99095.56
2023-01-05T02:52:10.609Z,99105.16
2023-01-05T02:54:49.150Z,99094.94
2023-01-05T02:57:41.943Z,99100.47
2023-01-05T03:00:15.411Z,99100.19
2023-01-05T03:02:50.126Z,99102.78
2023-01-05T03:05:23.673Z,99103.84
2023-01-05T03:07:55.348Z,99110.03
2023-01-05T03:10:43.292Z,99104.53
2023-01-05T03:13:30.578Z,99104.59
2023-01-05T03:16:02.556Z,99106.84
2023-01-05T03:18:34.300Z,99116.88
2023-01-05T03:21:05.401Z,99113.84
2023-01-05T03:23:51.269Z,99106.72
2023-01-05T03:26:38.265Z,99111.94
2023-01-05T03:29:23.598Z,99115.38
2023-01-05T03:32:14.921Z,99117.94
2023-01-05T03:35:07.923Z,99123.63
2023-01-05T03:37:41.127Z,99124.47
2023-01-05T03:40:17.393Z,99117.72
2023-01-05T03:42:46.739Z,99129.38
2023-01-05T03:45:17.523Z,99134.88
2023-01-05T03:47:45.648Z,99127.25
2023-01-05T03:50:19.324Z,99136.59
2023-01-05T03:52:47.677Z,99133.63
2023-01-05T03:55:18.057Z,99132.06
2023-01-05T03:57:46.771Z,99122.00
2023-01-05T04:00:16.696Z,99129.91
2023-01-05T04:02:46.055Z,99130.44
2023-01-05T04:05:20.460Z,99140.47
2023-01-05T04:07:48.712Z,99136.38
2023-01-05T04:10:19.382Z,99142.03
2023-01-05T04:12:49.543Z,99144.84
2023-01-05T04:15:17.900Z,99154.72
2023-01-05T04:17:46.395Z,99141.97
2023-01-05T04:20:17.037Z,99151.03
2023-01-05T04:22:45.464Z,99147.75
2023-01-05T04:25:13.708Z,99152.13
2023-01-05T04:27:42.355Z,99158.09
2023-01-05T04:30:12.485Z,99166.28
2023-01-05T04:32:41.016Z,99162.41
2023-01-05T04:35:11.533Z,99167.69
2023-01-05T04:37:43.275Z,99167.13
2023-01-05T04:40:13.244Z,99160.94
2023-01-05T04:42:43.578Z,99167.22
2023-01-05T04:45:13.043Z,99167.78
2023-01-05T04:47:41.401Z,99165.91
2023-01-05T04:50:12.184Z,99184.19
2023-01-05T04:52:41.412Z,99174.53
2023-01-05T04:55:13.152Z,99176.84
2023-01-05T04:57:42.588Z,99179.00
2023-01-05T05:00:15.222Z,99182.50
2023-01-05T05:02:43.906Z,99176.78
2023-01-05T05:05:12.709Z,99198.25
2023-01-05T05:07:41.201Z,99179.31
2023-01-05T05:10:12.365Z,99198.13
2023-01-05T05:12:41.666Z,99192.94
2023-01-05T05:15:12.342Z,99194.09
2023-01-05T05:17:40.728Z,99185.22
2023-01-05T05:20:10.490Z,99194.97
2023-01-05T05:22:38.939Z,99190.63
2023-01-05T05:25:08.789Z,99198.06
2023-01-05T05:27:39.043Z,99192.47
2023-01-05T05:30:08.801Z,99193.06
2023-01-05T05:32:43.822Z,99198.19
2023-01-05T05:35:12.682Z,99202.53
2023-01-05T05:37:42.189Z,99200.56
2023-01-05T05:40:14.242Z,99214.41
2023-01-05T05:42:44.349Z,99218.38
2023-01-05T05:45:13.467Z,99218.03
2023-01-05T05:47:41.923Z,99212.91
2023-01-05T05:50:11.052Z,99218.03
2023-01-05T05:52:42.142Z,99226.81
2023-01-05T05:55:11.273Z,99226.81
2023-01-05T05:57:39.463Z,99229.75
2023-01-05T06:00:12.193Z,99240.56
2023-01-05T06:02:41.203Z,99232.63
2023-01-05T06:05:12.962Z,99234.41
2023-01-05T06:07:41.605Z,99240.25
2023-01-05T06:10:10.771Z,99248.41
2023-01-05T06:12:39.675Z,99239.69
2023-01-05T06:15:19.507Z,99240.00
2023-01-05T06:17:48.657Z,99241.69
2023-01-05T06:20:18.459Z,99249.44
2023-01-05T06:22:46.959Z,99246.31
2023-01-05T06:25:16.088Z,99248.69
2023-01-05T06:27:44.559Z,99258.22
2023-01-05T06:30:16.413Z,99253.88
2023-01-05T06:32:46.418Z,99254.63
2023-01-05T06:35:14.713Z,99253.34
2023-01-05T06:37:43.598Z,99247.25
2023-01-05T06:40:12.678Z,99255.88
2023-01-05T06:42:42.509Z,99258.47
2023-01-05T06:45:13.890Z,99268.72
2023-01-05T06:47:44.149Z,99278.38
2023-01-05T06:50:13.421Z,99275.13
2023-01-05T06:52:42.090Z,99283.75
2023-01-05T06:55:12.228Z,99280.19
2023-01-05T06:57:40.930Z,99285.03
2023-01-05T07:00:12.962Z,99297.88
2023-01-05T07:02:41.544Z,99301.13
2023-01-05T07:05:12.957Z,99307.63
2023-01-05T07:07:41.662Z,99314.03
2023-01-05T07:10:11.266Z,99314.84
2023-01-05T07:12:39.544Z,99326.06
2023-01-05T07:15:09.113Z,99329.66
2023-01-05T07:17:40.437Z,99339.16
2023-01-05T07:20:12.286Z,99348.69
2023-01-05T07:22:40.636Z,99348.44
2023-01-05T07:25:11.630Z,99360.63
2023-01-05T07:27:42.823Z,99362.66
2023-01-05T07:30:12.962Z,99367.47
2023-01-05T07:32:41.469Z,99362.81
2023-01-05T07:35:12.081Z,99365.41
2023-01-05T07:37:44.564Z,99370.78
2023-01-05T07:40:14.094Z,99379.00
2023-01-05T07:42:42.973Z,99382.16
2023-01-05T07:45:11.931Z,99385.47
2023-01-05T07:47:40.976Z,99401.69
2023-01-05T07:50:14.260Z,99402.72
2023-01-05T07:52:42.587Z,99410.38
2023-01-05T07:55:14.652Z,99409.81
2023-01-05T07:57:45.385Z,99404.25
2023-01-05T08:00:15.564Z,99413.38
2023-01-05T08:02:44.488Z,99404.41
2023-01-05T08:05:14.425Z,99419.44
2023-01-05T08:07:46.028Z,99422.16
2023-01-05T08:10:33.033Z,99431.34
2023-01-05T08:13:22.863Z,99433.94
2023-01-05T08:15:54.276Z,99439.66
2023-01-05T08:18:23.983Z,99447.06
2023-01-05T08:20:56.143Z,99448.78
2023-01-05T08:23:29.644Z,99460.78
2023-01-05T08:25:58.637Z,99463.63
2023-01-05T08:28:34.786Z,99462.75
2023-01-05T08:31:08.840Z,99468.91
2023-01-05T08:33:38.728Z,99463.66
2023-01-05T08:36:12.894Z,99474.69
2023-01-05T08:38:48.765Z,99482.63
2023-01-05T08:41:19.887Z,99476.66
2023-01-05T08:43:52.331Z,99482.00
2023-01-05T08:46:21.085Z,99485.34
2023-01-05T08:48:51.150Z,99489.94
2023-01-05T08:51:21.869Z,99502.63
2023-01-05T08:53:54.020Z,99491.81
2023-01-05T08:56:25.267Z,99501.38
2023-01-05T08:58:56.822Z,99495.66
2023-01-05T09:01:28.338Z,99500.59
2023-01-05T09:03:57.846Z,99499.38
2023-01-05T09:06:27.565Z,99502.00
2023-01-05T09:08:56.770Z,99494.44
2023-01-05T09:11:27.204Z,99507.56
2023-01-05T09:13:57.607Z,99505.63
2023-01-05T09:19:22.135Z,99498.09
2023-01-05T09:21:52.922Z,99490.19
2023-01-05T09:24:22.515Z,99494.25
2023-01-05T09:26:51.061Z,99489.88
2023-01-05T09:29:20.740Z,99486.91
2023-01-05T09:31:49.403Z,99495.56
2023-01-05T09:34:19.258Z,99484.00
2023-01-05T09:36:47.903Z,99493.94
2023-01-05T09:39:22.051Z,99486.97
2023-01-05T09:41:52.916Z,99483.81
2023-01-05T09:44:31.046Z,99488.28
2023-01-05T09:47:04.146Z,99494.06
2023-01-05T09:49:38.427Z,99499.03
2023-01-05T09:52:11.061Z,99498.25
2023-01-05T09:54:42.507Z,99493.13
2023-01-05T09:57:19.092Z,99497.25
2023-01-05T09:59:50.541Z,99489.09
2023-01-05T10:02:28.661Z,99484.00
2023-01-05T10:04:57.785Z,99485.28
2023-01-05T10:07:36.518Z,99494.69
2023-01-05T10:10:15.962Z,99497.44
2023-01-05T10:13:09.347Z,99493.50
2023-01-05T10:15:44.612Z,99486.59
2023-01-05T10:18:15.835Z,99493.13
2023-01-05T10:20:56.348Z,99477.63
2023-01-05T10:23:41.580Z,99496.19
2023-01-05T10:26:16.439Z,99499.50
2023-01-05T10:28:52.918Z,99479.38
2023-01-05T10:31:25.596Z,99471.81
2023-01-05T10:34:00.217Z,99492.00
2023-01-05T10:39:55.909Z,99472.00
2023-01-05T10:42:43.677Z,99471.16
2023-01-05T10:45:14.900Z,99477.00
2023-01-05T10:47:50.543Z,99495.03
2023-01-05T10:50:32.940Z,99483.25
2023-01-05T10:53:03.815Z,99484.22
2023-01-05T10:55:35.146Z,99484.13
2023-01-05T10:58:23.379Z,99489.72
2023-01-05T11:00:56.128Z,99492.19
2023-01-05T11:04:04.334Z,99478.03
2023-01-05T11:06:27.541Z,99478.22
2023-01-05T11:09:07.111Z,99477.69
2023-01-05T11:11:41.530Z,99489.25
2023-01-05T11:14:18.784Z,99495.31
2023-01-05T11:17:03.214Z,99493.44
2023-01-05T11:19:37.233Z,99485.47
2023-01-05T11:22:05.710Z,99479.47
2023-01-05T11:24:36.265Z,99501.44
2023-01-05T11:27:24.882Z,99498.72
2023-01-05T11:30:38.323Z,99499.72
2023-01-05T11:33:24.778Z,99502.47
2023-01-05T11:35:55.054Z,99506.28
2023-01-05T11:38:26.703Z,99517.84
2023-01-05T11:40:57.359Z,99509.72
2023-01-05T11:43:30.533Z,99507.34
2023-01-05T11:46:05.199Z,99505.47
2023-01-05T11:48:36.710Z,99504.31
2023-01-05T11:51:12.888Z,99512.94
2023-01-05T11:53:44.022Z,99514.91
2023-01-05T11:56:22.190Z,99507.81
2023-01-05T11:58:54.712Z,99507.25
2023-01-05T12:04:37.365Z,99519.75
2023-01-05T12:07:20.840Z,99516.25
2023-01-05T12:09:58.084Z,99520.13
2023-01-05T12:12:48.260Z,99519.09
2023-01-05T12:15:50.347Z,99513.50
2023-01-05T12:18:42.967Z,99520.22
2023-01-05T12:21:18.076Z,99521.44
2023-01-05T12:24:12.262Z,99511.44
2023-01-05T12:26:48.004Z,99514.16
2023-01-05T12:31:29.457Z,99513.69
2023-01-05T12:36:25.438Z,99513.41
2023-01-05T12:39:08.815Z,99516.06
2023-01-05T12:41:56.340Z,99508.28
2023-01-05T12:44:50.644Z,99509.25
2023-01-05T12:47:41.263Z,99510.22
2023-01-05T12:50:24.464Z,99518.16
2023-01-05T12:53:07.949Z,99511.00
2023-01-05T12:55:43.381Z,99520.22
2023-01-05T12:58:16.323Z,99512.34
2023-01-05T13:00:56.551Z,99517.91
2023-01-05T13:03:29.856Z,99509.88
2023-01-05T13:06:07.456Z,99511.28
2023-01-05T13:08:43.055Z,99504.78
2023-01-05T13:11:19.625Z,99508.50
2023-01-05T13:13:53.188Z,99507.22
2023-01-05T13:16:24.999Z,99512.97
2023-01-05T13:18:59.299Z,99515.47
2023-01-05T13:21:41.148Z,99515.00
2023-01-05T13:24:21.307Z,99509.88
2023-01-05T13:26:52.263Z,99522.19
2023-01-05T13:29:39.733Z,99521.88
2023-01-05T13:32:39.078Z,99516.88
2023-01-05T13:35:31.920Z,99523.03
2023-01-05T13:38:27.468Z,99523.84
2023-01-05T13:41:17.499Z,99522.63
2023-01-05T13:44:16.809Z,99523.72
2023-01-05T13:47:04.758Z,99530.84
2023-01-05T13:50:04.305Z,99529.44
2023-01-05T13:52:49.916Z,99533.72
2023-01-05T13:55:26.180Z,99525.38
2023-01-05T13:57:57.784Z,99528.81
2023-01-05T14:00:32.140Z,99540.72
2023-01-05T14:03:08.576Z,99541.22
2023-01-05T14:05:50.884Z,99538.59
2023-01-05T14:08:25.245Z,99536.09
2023-01-05T14:11:15.658Z,99539.34
2023-01-05T14:14:05.211Z,99541.59
2023-01-05T14:16:58.837Z,99542.56
2023-01-05T14:19:52.278Z,99535.00
2023-01-05T14:22:35.374Z,99546.72
2023-01-05T14:25:40.810Z,99540.09
2023-01-05T14:28:24.458Z,99554.22
2023-01-05T14:31:47.895Z,99558.56
2023-01-05T14:34:19.235Z,99568.47
2023-01-05T14:37:10.559Z,99566.38
2023-01-05T14:39:44.892Z,99570.50
2023-01-05T14:42:27.728Z,99570.84
2023-01-05T14:45:01.204Z,99572.41
2023-01-05T14:47:43.071Z,99576.59
2023-01-05T14:50:32.670Z,99563.47
2023-01-05T14:53:05.501Z,99575.16
2023-01-05T14:55:39.366Z,99577.66
2023-01-05T14:58:13.999Z,99577.34
2023-01-05T15:00:47.132Z,99584.56
2023-01-05T15:03:25.902Z,99584.28
2023-01-05T15:06:03.741Z,99584.13
2023-01-05T15:08:53.802Z,99589.31
2023-01-05T15:11:40.374Z,99591.84
2023-01-05T15:14:35.443Z,99588.91
2023-01-05T15:17:27.924Z,99590.72
2023-01-05T15:20:30.344Z,99597.72
2023-01-05T15:23:19.592Z,99594.47
2023-01-05T15:26:28.177Z,99592.69
2023-01-05T15:29:36.037Z,99599.28
2023-01-05T15:32:13.865Z,99605.53
2023-01-05T15:34:49.090Z,99611.78
2023-01-05T15:37:24.908Z,99609.09
2023-01-05T15:39:55.685Z,99609.00
2023-01-05T15:42:34.484Z,99613.69
2023-01-05T15:45:03.360Z,99614.25
2023-01-05T15:47:32.083Z,99611.91
2023-01-05T15:50:02.845Z,99610.34
2023-01-05T15:52:36.434Z,99621.06
2023-01-05T15:55:13.315Z,99616.78
2023-01-05T15:57:45.205Z,99616.28
2023-01-05T16:00:18.181Z,99614.75
2023-01-05T16:02:46.845Z,99619.88
2023-01-05T16:05:18.055Z,99612.78
2023-01-05T16:07:55.084Z,99621.16
2023-01-05T16:10:27.541Z,99614.91
2023-01-05T16:13:01.489Z,99617.84
2023-01-05T16:15:34.167Z,99614.25
2023-01-05T16:18:04.802Z,99611.34
2023-01-05T16:20:33.671Z,99620.25
2023-01-05T16:23:10.042Z,99625.94
2023-01-05T16:25:43.303Z,99624.34
2023-01-05T16:28:17.774Z,99616.63
2023-01-05T16:30:47.869Z,99619.56
2023-01-05T16:33:30.481Z,99619.53
2023-01-05T16:36:20.268Z,99623.81
2023-01-05T16:38:52.592Z,99615.03
2023-01-05T16:41:25.810Z,99617.63
2023-01-05T16:43:59.694Z,99626.16
2023-01-05T16:46:43.043Z,99623.41
2023-01-05T16:49:33.636Z,99624.41
2023-01-05T16:52:04.341Z,99624.31
2023-01-05T16:54:42.486Z,99621.34
2023-01-05T16:57:32.226Z,99628.63
2023-01-05T17:00:02.754Z,99623.28
2023-01-05T17:02:45.780Z,99623.72
2023-01-05T17:05:19.877Z,99624.16
2023-01-05T17:07:52.418Z,99624.25
2023-01-05T17:10:27.260Z,99630.31
2023-01-05T17:13:03.787Z,99628.50
2023-01-05T17:15:35.143Z,99632.94
2023-01-05T17:18:15.127Z,99631.94
2023-01-05T17:20:46.975Z,99642.66
2023-01-05T17:23:19.979Z,99641.16
2023-01-05T17:28:24.568Z,99642.19
2023-01-05T17:30:54.533Z,99646.53
2023-01-05T17:33:23.566Z,99644.50
2023-01-05T17:35:52.297Z,99652.03
2023-01-05T17:38:20.984Z,99649.22
2023-01-05T17:40:52.471Z,99645.94
2023-01-05T17:43:23.347Z,99640.06
2023-01-05T17:45:52.895Z,99639.75
2023-01-05T17:48:21.512Z,99641.59
2023-01-05T17:50:54.240Z,99647.16
2023-01-05T17:53:24.593Z,99655.44
2023-01-05T17:55:54.447Z,99660.56
2023-01-05T17:58:26.457Z,99659.81
2023-01-05T18:00:55.790Z,99658.50
2023-01-05T18:03:28.494Z,99654.69
2023-01-05T18:05:57.022Z,99647.91
2023-01-05T18:08:26.903Z,99649.88
2023-01-05T18:10:56.841Z,99650.16
2023-01-05T18:13:25.051Z,99646.75
2023-01-05T18:15:55.547Z,99642.88
2023-01-05T18:18:30.393Z,99659.53
2023-01-05T18:21:01.470Z,99644.94
2023-01-05T18:23:34.276Z,99647.50
2023-01-05T18:26:10.641Z,99648.50
2023-01-05T18:28:41.749Z,99643.03
2023-01-05T18:31:16.794Z,99650.47
2023-01-05T18:33:45.849Z,99648.22
2023-01-05T18:36:18.823Z,99647.00
2023-01-05T18:38:48.137Z,99651.13
2023-01-05T18:41:25.396Z,99667.88
2023-01-05T18:43:54.012Z,99665.66
2023-01-05T18:46:22.841Z,99661.56
2023-01-05T18:48:57.009Z,99671.38
2023-01-05T18:51:25.553Z,99678.63
2023-01-05T18:53:54.264Z,99678.63
2023-01-05T18:56:25.631Z,99679.59
2023-01-05T18:58:55.447Z,99695.19
2023-01-05T19:01:25.157Z,99693.09
2023-01-05T19:03:55.030Z,99689.81
2023-01-05T19:06:25.882Z,99694.81
2023-01-05T19:08:57.364Z,99696.78
2023-01-05T19:11:30.507Z,99693.28
2023-01-05T19:14:04.502Z,99701.03
2023-01-05T19:16:35.442Z,99691.41
2023-01-05T19:19:08.989Z,99695.34
2023-01-05T19:21:53.624Z,99697.66
2023-01-05T19:24:26.905Z,99695.78
2023-01-05T19:27:09.614Z,99695.97
2023-01-05T19:29:38.562Z,99692.06
2023-01-05T19:32:07.295Z,99695.41
2023-01-05T19:34:38.864Z,99690.47
2023-01-05T19:37:08.043Z,99682.53
2023-01-05T19:39:36.941Z,99693.66
2023-01-05T19:42:08.699Z,99688.88
2023-01-05T19:44:37.306Z,99692.63
2023-01-05T19:47:05.683Z,99695.19
2023-01-05T19:49:35.536Z,99694.03
2023-01-05T19:52:04.265Z,99683.38
2023-01-05T19:54:33.912Z,99682.53
2023-01-05T19:57:03.649Z,99682.50
2023-01-05T19:59:34.654Z,99674.00
2023-01-05T20:02:04.074Z,99664.75
2023-01-05T20:04:33.877Z,99664.31
2023-01-05T20:07:04.116Z,99650.22
2023-01-05T20:09:33.626Z,99661.38
2023-01-05T20:12:13.923Z,99663.22
2023-01-05T20:14:47.943Z,99662.13
2023-01-05T20:17:17.326Z,99661.06
2023-01-05T20:19:47.715Z,99660.13
2023-01-05T20:22:16.144Z,99658.34
2023-01-05T20:24:45.786Z,99664.66
2023-01-05T20:27:15.824Z,99662.69
2023-01-05T20:29:48.197Z,99665.31
2023-01-05T20:32:19.797Z,99670.84
2023-01-05T20:34:55.926Z,99670.13
2023-01-05T20:37:27.289Z,99671.31
2023-01-05T20:39:57.709Z,99668.44
2023-01-05T20:42:26.167Z,99658.06
2023-01-05T20:44:56.648Z,99654.44
2023-01-05T20:47:26.186Z,99663.44
2023-01-05T20:49:57.230Z,99652.66
2023-01-05T20:52:26.214Z,99646.56
2023-01-05T20:54:55.978Z,99654.97
2023-01-05T20:57:24.893Z,99651.03
2023-01-05T20:59:53.774Z,99660.88
2023-01-05T21:02:24.862Z,99666.94
2023-01-05T21:04:56.614Z,99660.34
2023-01-05T21:07:26.036Z,99653.81
2023-01-05T21:09:56.229Z,99657.31
2023-01-05T21:12:24.664Z,99660.22
2023-01-05T21:14:54.652Z,99664.97
2023-01-05T21:17:27.338Z,99662.09
2023-01-05T21:19:55.859Z,99672.28
2023-01-05T21:22:26.167Z,99670.47
2023-01-05T21:24:55.297Z,99663.16
2023-01-05T21:27:29.051Z,99668.06
2023-01-05T21:29:57.865Z,99663.78
2023-01-05T21:32:32.889Z,99666.88
2023-01-05T21:35:01.549Z,99657.09
2023-01-05T21:37:31.846Z,99654.19
2023-01-05T21:40:00.459Z,99651.56
2023-01-05T21:42:45.415Z,99650.97
2023-01-05T21:45:16.631Z,99647.47
2023-01-05T21:47:47.210Z,99643.25
2023-01-05T21:50:38.382Z,99639.22
2023-01-05T21:53:29.904Z,99634.53
2023-01-05T21:56:15.667Z,99634.81
2023-01-05T21:58:43.999Z,99636.22
2023-01-05T22:01:13.934Z,99629.56
2023-01-05T22:03:45.447Z,99639.91
2023-01-05T22:06:15.934Z,99637.84
2023-01-05T22:08:45.233Z,99638.22
2023-01-05T22:11:14.023Z,99630.50
2023-01-05T22:13:42.898Z,99629.59
2023-01-05T22:16:11.822Z,99630.66
2023-01-05T22:18:41.052Z,99632.94
2023-01-05T22:21:15.873Z,99633.09
2023-01-05T22:23:45.895Z,99632.69
2023-01-05T22:26:20.747Z,99622.06
2023-01-05T22:28:52.174Z,99624.78
2023-01-05T22:31:22.975Z,99622.91
2023-01-05T22:33:58.139Z,99623.22
2023-01-05T22:36:30.969Z,99624.38
2023-01-05T22:39:00.902Z,99629.72
2023-01-05T22:41:31.754Z,99624.44
2023-01-05T22:44:09.257Z,99625.06
2023-01-05T22:46:38.225Z,99625.22
2023-01-05T22:49:06.912Z,99616.75
2023-01-05T22:51:49.666Z,99627.16
2023-01-05T22:54:19.491Z,99625.09
2023-01-05T22:56:49.729Z,99623.00
2023-01-05T22:59:18.509Z,99628.66
2023-01-05T23:01:49.281Z,99634.47
2023-01-05T23:04:20.621Z,99623.50
2023-01-05T23:06:50.496Z,99628.13
2023-01-05T23:09:19.853Z,99629.44
2023-01-05T23:11:49.721Z,99633.53
2023-01-05T23:14:19.379Z,99626.06
2023-01-05T23:16:48.087Z,99635.31
2023-01-05T23:19:17.344Z,99615.09
2023-01-05T23:21:47.105Z,99619.91
2023-01-05T23:24:17.619Z,99618.59
2023-01-05T23:26:46.038Z,99620.94
2023-01-05T23:29:14.504Z,99617.44
2023-01-05T23:31:43.326Z,99607.78
2023-01-05T23:34:11.753Z,99611.59
2023-01-05T23:36:41.988Z,99619.81
2023-01-05T23:39:10.668Z,99617.53
2023-01-05T23:41:42.213Z,99607.91
2023-01-05T23:44:12.197Z,99605.53
2023-01-05T23:46:41.497Z,99601.47
2023-01-05T23:49:10.596Z,99601.16
2023-01-05T23:51:39.009Z,99608.00
2023-01-05T23:54:07.614Z,99603.09
2023-01-05T23:56:37.464Z,99601.75
2023-01-05T23:59:14.283Z,99601.44
